Terminal Aerodrome Forecast
Issued by NWS Wilmington, OH

Current Version | Previous Version | Graphics & Text | Print | Product List | Glossary On
Versions: 1 2 3 4 5 6 7 8 9 10 11 12 13 14 15 16 17 18 19 20 21 22 23 24 25 26 27 28 29
000
FTUS41 KILN 220600 AAA
TAFILN
TAF AMD
KILN 220631Z 2207/2306 27009KT P6SM -RA FEW090 BKN100
      TEMPO 2207/2210 2SM -TSRA OVC025CB
     FM221300 23005KT P6SM VCSH BKN015
     FM221500 23007KT P6SM -SHRA VCTS BKN022CB
     FM221900 25009KT P6SM BKN035
     FM222300 25008KT P6SM VCTS BKN035CB
     FM230300 24004KT P6SM SCT040 BKN080=

USA.gov is the U.S. government's official web portal to all federal, state and local government web resources and services.